sensor_id;sensor_type;location;lat;lon;timestamp;P1;durP1;ratioP1;P2;durP2;ratioP2
5890;SDS011;2971;52.420;7.080;2023-08-01T00:01:01;10.93;;;9.70;;
5890;SDS011;2971;52.420;7.080;2023-08-01T00:03:27;10.83;;;9.73;;
5890;SDS011;2971;52.420;7.080;2023-08-01T00:05:52;11.83;;;9.87;;
5890;SDS011;2971;52.420;7.080;2023-08-01T00:08:19;12.93;;;10.40;;
5890;SDS011;2971;52.420;7.080;2023-08-01T00:10:45;12.10;;;10.37;;
5890;SDS011;2971;52.420;7.080;2023-08-01T00:13:11;13.03;;;10.37;;
5890;SDS011;2971;52.420;7.080;2023-08-01T00:15:36;11.40;;;10.20;;
5890;SDS011;2971;52.420;7.080;2023-08-01T00:18:02;11.60;;;10.40;;
5890;SDS011;2971;52.420;7.080;2023-08-01T00:20:28;11.23;;;10.00;;
5890;SDS011;2971;52.420;7.080;2023-08-01T00:22:53;11.77;;;10.43;;
5890;SDS011;2971;52.420;7.080;2023-08-01T00:25:19;13.87;;;10.73;;
5890;SDS011;2971;52.420;7.080;2023-08-01T00:27:44;13.10;;;10.40;;
5890;SDS011;2971;52.420;7.080;2023-08-01T00:30:10;13.13;;;10.67;;
5890;SDS011;2971;52.420;7.080;2023-08-01T00:32:36;12.20;;;10.90;;
5890;SDS011;2971;52.420;7.080;2023-08-01T00:35:02;12.30;;;11.00;;
5890;SDS011;2971;52.420;7.080;2023-08-01T00:37:27;14.13;;;10.60;;
5890;SDS011;2971;52.420;7.080;2023-08-01T00:39:53;11.63;;;10.40;;
5890;SDS011;2971;52.420;7.080;2023-08-01T00:42:18;12.80;;;10.10;;
5890;SDS011;2971;52.420;7.080;2023-08-01T00:44:44;12.10;;;9.20;;
5890;SDS011;2971;52.420;7.080;2023-08-01T00:47:09;10.33;;;9.33;;
5890;SDS011;2971;52.420;7.080;2023-08-01T00:49:35;11.40;;;9.37;;
5890;SDS011;2971;52.420;7.080;2023-08-01T00:52:00;10.57;;;9.47;;
5890;SDS011;2971;52.420;7.080;2023-08-01T00:54:26;11.07;;;9.77;;
5890;SDS011;2971;52.420;7.080;2023-08-01T00:56:51;10.80;;;9.70;;
5890;SDS011;2971;52.420;7.080;2023-08-01T00:59:17;12.57;;;10.50;;
5890;SDS011;2971;52.420;7.080;2023-08-01T01:01:42;13.03;;;11.03;;
5890;SDS011;2971;52.420;7.080;2023-08-01T01:04:08;12.23;;;11.03;;
5890;SDS011;2971;52.420;7.080;2023-08-01T01:06:41;12.67;;;10.97;;
5890;SDS011;2971;52.420;7.080;2023-08-01T01:09:14;12.80;;;10.70;;
5890;SDS011;2971;52.420;7.080;2023-08-01T01:11:40;13.63;;;11.07;;
5890;SDS011;2971;52.420;7.080;2023-08-01T01:14:05;13.00;;;10.60;;
5890;SDS011;2971;52.420;7.080;2023-08-01T01:16:31;13.23;;;10.30;;
5890;SDS011;2971;52.420;7.080;2023-08-01T01:18:56;13.50;;;10.97;;
5890;SDS011;2971;52.420;7.080;2023-08-01T01:21:22;13.93;;;11.23;;
5890;SDS011;2971;52.420;7.080;2023-08-01T01:23:47;14.80;;;11.43;;
5890;SDS011;2971;52.420;7.080;2023-08-01T01:26:14;13.40;;;11.70;;
5890;SDS011;2971;52.420;7.080;2023-08-01T01:28:41;13.13;;;11.60;;
5890;SDS011;2971;52.420;7.080;2023-08-01T01:31:08;13.70;;;12.30;;
5890;SDS011;2971;52.420;7.080;2023-08-01T01:33:33;16.07;;;12.63;;
5890;SDS011;2971;52.420;7.080;2023-08-01T01:36:00;14.53;;;13.03;;
5890;SDS011;2971;52.420;7.080;2023-08-01T01:38:26;14.50;;;12.33;;
5890;SDS011;2971;52.420;7.080;2023-08-01T01:40:51;17.03;;;12.67;;
5890;SDS011;2971;52.420;7.080;2023-08-01T01:43:17;15.60;;;12.93;;
5890;SDS011;2971;52.420;7.080;2023-08-01T01:45:42;16.70;;;13.93;;
5890;SDS011;2971;52.420;7.080;2023-08-01T01:48:07;16.10;;;14.40;;
5890;SDS011;2971;52.420;7.080;2023-08-01T01:50:33;16.23;;;14.37;;
5890;SDS011;2971;52.420;7.080;2023-08-01T01:52:59;14.83;;;13.27;;
5890;SDS011;2971;52.420;7.080;2023-08-01T01:55:24;14.17;;;12.90;;
5890;SDS011;2971;52.420;7.080;2023-08-01T01:57:50;14.37;;;12.50;;
5890;SDS011;2971;52.420;7.080;2023-08-01T02:00:15;13.80;;;12.30;;
5890;SDS011;2971;52.420;7.080;2023-08-01T02:02:41;13.83;;;12.47;;
5890;SDS011;2971;52.420;7.080;2023-08-01T02:05:06;13.20;;;11.90;;
5890;SDS011;2971;52.420;7.080;2023-08-01T02:07:32;12.77;;;11.50;;
5890;SDS011;2971;52.420;7.080;2023-08-01T02:09:59;12.80;;;11.50;;
5890;SDS011;2971;52.420;7.080;2023-08-01T02:12:24;12.97;;;11.67;;
5890;SDS011;2971;52.420;7.080;2023-08-01T02:14:50;12.83;;;10.80;;
5890;SDS011;2971;52.420;7.080;2023-08-01T02:17:16;12.57;;;11.27;;
5890;SDS011;2971;52.420;7.080;2023-08-01T02:19:41;12.80;;;11.47;;
5890;SDS011;2971;52.420;7.080;2023-08-01T02:22:06;11.97;;;10.83;;
5890;SDS011;2971;52.420;7.080;2023-08-01T02:24:32;11.77;;;10.43;;
5890;SDS011;2971;52.420;7.080;2023-08-01T02:26:57;10.93;;;9.80;;
5890;SDS011;2971;52.420;7.080;2023-08-01T02:29:23;12.33;;;10.47;;
5890;SDS011;2971;52.420;7.080;2023-08-01T02:31:48;11.23;;;10.17;;
5890;SDS011;2971;52.420;7.080;2023-08-01T02:34:13;10.90;;;9.90;;
5890;SDS011;2971;52.420;7.080;2023-08-01T02:36:39;12.27;;;10.97;;
5890;SDS011;2971;52.420;7.080;2023-08-01T02:39:06;14.37;;;10.73;;
5890;SDS011;2971;52.420;7.080;2023-08-01T02:41:32;12.40;;;10.60;;
5890;SDS011;2971;52.420;7.080;2023-08-01T02:43:57;12.27;;;10.93;;
5890;SDS011;2971;52.420;7.080;2023-08-01T02:46:23;13.67;;;11.07;;
5890;SDS011;2971;52.420;7.080;2023-08-01T02:48:48;12.37;;;11.17;;
5890;SDS011;2971;52.420;7.080;2023-08-01T02:51:14;16.17;;;12.10;;
5890;SDS011;2971;52.420;7.080;2023-08-01T02:53:39;15.03;;;11.97;;
5890;SDS011;2971;52.420;7.080;2023-08-01T02:56:07;15.63;;;12.40;;
5890;SDS011;2971;52.420;7.080;2023-08-01T02:58:35;13.10;;;11.70;;
5890;SDS011;2971;52.420;7.080;2023-08-01T03:01:00;15.77;;;11.60;;
5890;SDS011;2971;52.420;7.080;2023-08-01T03:03:26;17.77;;;12.17;;
5890;SDS011;2971;52.420;7.080;2023-08-01T03:05:51;15.33;;;11.60;;
5890;SDS011;2971;52.420;7.080;2023-08-01T03:08:17;19.57;;;12.20;;
5890;SDS011;2971;52.420;7.080;2023-08-01T03:10:43;16.60;;;11.93;;
5890;SDS011;2971;52.420;7.080;2023-08-01T03:13:08;16.23;;;11.50;;
5890;SDS011;2971;52.420;7.080;2023-08-01T03:15:33;15.43;;;11.33;;
5890;SDS011;2971;52.420;7.080;2023-08-01T03:17:59;16.70;;;11.53;;
5890;SDS011;2971;52.420;7.080;2023-08-01T03:20:24;16.97;;;11.93;;
5890;SDS011;2971;52.420;7.080;2023-08-01T03:22:50;17.33;;;12.40;;
5890;SDS011;2971;52.420;7.080;2023-08-01T03:25:15;16.43;;;12.23;;
5890;SDS011;2971;52.420;7.080;2023-08-01T03:27:41;18.23;;;13.07;;
5890;SDS011;2971;52.420;7.080;2023-08-01T03:30:06;18.27;;;12.90;;
5890;SDS011;2971;52.420;7.080;2023-08-01T03:32:35;20.20;;;13.20;;
5890;SDS011;2971;52.420;7.080;2023-08-01T03:35:02;20.90;;;13.73;;
5890;SDS011;2971;52.420;7.080;2023-08-01T03:37:31;21.27;;;14.07;;
5890;SDS011;2971;52.420;7.080;2023-08-01T03:39:56;23.30;;;14.63;;
5890;SDS011;2971;52.420;7.080;2023-08-01T03:42:22;20.47;;;13.90;;
5890;SDS011;2971;52.420;7.080;2023-08-01T03:44:47;24.27;;;14.70;;
5890;SDS011;2971;52.420;7.080;2023-08-01T03:47:13;21.77;;;14.80;;
5890;SDS011;2971;52.420;7.080;2023-08-01T03:49:38;20.77;;;14.77;;
5890;SDS011;2971;52.420;7.080;2023-08-01T03:52:04;20.93;;;15.23;;
5890;SDS011;2971;52.420;7.080;2023-08-01T03:54:30;21.97;;;14.73;;
5890;SDS011;2971;52.420;7.080;2023-08-01T03:56:56;25.77;;;15.43;;
5890;SDS011;2971;52.420;7.080;2023-08-01T03:59:21;23.43;;;15.67;;
5890;SDS011;2971;52.420;7.080;2023-08-01T04:01:47;22.43;;;15.47;;
5890;SDS011;2971;52.420;7.080;2023-08-01T04:04:12;20.97;;;14.50;;
5890;SDS011;2971;52.420;7.080;2023-08-01T04:06:38;21.57;;;14.67;;
5890;SDS011;2971;52.420;7.080;2023-08-01T04:09:03;23.33;;;14.83;;
5890;SDS011;2971;52.420;7.080;2023-08-01T04:11:29;20.77;;;14.20;;
5890;SDS011;2971;52.420;7.080;2023-08-01T04:13:55;22.53;;;15.33;;
5890;SDS011;2971;52.420;7.080;2023-08-01T04:16:21;21.37;;;15.13;;
5890;SDS011;2971;52.420;7.080;2023-08-01T04:18:47;21.20;;;14.40;;
5890;SDS011;2971;52.420;7.080;2023-08-01T04:21:15;19.53;;;14.93;;
5890;SDS011;2971;52.420;7.080;2023-08-01T04:23:41;20.53;;;14.40;;
5890;SDS011;2971;52.420;7.080;2023-08-01T04:26:06;21.50;;;15.00;;
5890;SDS011;2971;52.420;7.080;2023-08-01T04:28:32;21.00;;;14.63;;
5890;SDS011;2971;52.420;7.080;2023-08-01T04:30:58;22.83;;;14.73;;
5890;SDS011;2971;52.420;7.080;2023-08-01T04:33:23;21.87;;;15.13;;
5890;SDS011;2971;52.420;7.080;2023-08-01T04:35:49;21.83;;;13.80;;
5890;SDS011;2971;52.420;7.080;2023-08-01T04:38:14;21.90;;;14.83;;
5890;SDS011;2971;52.420;7.080;2023-08-01T04:40:40;20.43;;;14.53;;
5890;SDS011;2971;52.420;7.080;2023-08-01T04:43:06;21.13;;;14.23;;
5890;SDS011;2971;52.420;7.080;2023-08-01T04:45:31;22.90;;;14.07;;
5890;SDS011;2971;52.420;7.080;2023-08-01T04:47:57;21.97;;;13.87;;
5890;SDS011;2971;52.420;7.080;2023-08-01T04:50:23;21.67;;;13.37;;
5890;SDS011;2971;52.420;7.080;2023-08-01T04:52:49;18.23;;;12.43;;
5890;SDS011;2971;52.420;7.080;2023-08-01T04:55:14;20.77;;;13.10;;
5890;SDS011;2971;52.420;7.080;2023-08-01T04:57:39;18.07;;;12.70;;
5890;SDS011;2971;52.420;7.080;2023-08-01T05:00:05;15.87;;;11.93;;
5890;SDS011;2971;52.420;7.080;2023-08-01T05:02:31;18.27;;;12.13;;
5890;SDS011;2971;52.420;7.080;2023-08-01T05:04:56;21.60;;;11.60;;
5890;SDS011;2971;52.420;7.080;2023-08-01T05:07:22;20.40;;;12.13;;
5890;SDS011;2971;52.420;7.080;2023-08-01T05:09:47;18.83;;;11.27;;
5890;SDS011;2971;52.420;7.080;2023-08-01T05:12:14;16.03;;;11.20;;
5890;SDS011;2971;52.420;7.080;2023-08-01T05:14:39;19.83;;;11.30;;
5890;SDS011;2971;52.420;7.080;2023-08-01T05:17:04;16.60;;;11.03;;
5890;SDS011;2971;52.420;7.080;2023-08-01T05:19:30;19.17;;;11.30;;
5890;SDS011;2971;52.420;7.080;2023-08-01T05:21:55;14.97;;;10.83;;
5890;SDS011;2971;52.420;7.080;2023-08-01T05:24:21;16.77;;;10.83;;
5890;SDS011;2971;52.420;7.080;2023-08-01T05:26:47;19.00;;;11.47;;
5890;SDS011;2971;52.420;7.080;2023-08-01T05:29:12;17.77;;;11.50;;
5890;SDS011;2971;52.420;7.080;2023-08-01T05:31:38;16.03;;;10.63;;
5890;SDS011;2971;52.420;7.080;2023-08-01T05:34:03;18.13;;;10.67;;
5890;SDS011;2971;52.420;7.080;2023-08-01T05:36:28;17.07;;;10.77;;
5890;SDS011;2971;52.420;7.080;2023-08-01T05:38:54;15.23;;;11.10;;
5890;SDS011;2971;52.420;7.080;2023-08-01T05:41:19;15.33;;;11.03;;
5890;SDS011;2971;52.420;7.080;2023-08-01T05:43:47;17.63;;;11.40;;
5890;SDS011;2971;52.420;7.080;2023-08-01T05:46:13;15.23;;;10.87;;
5890;SDS011;2971;52.420;7.080;2023-08-01T05:48:38;15.13;;;10.63;;
5890;SDS011;2971;52.420;7.080;2023-08-01T05:51:04;16.20;;;10.73;;
5890;SDS011;2971;52.420;7.080;2023-08-01T05:53:29;17.27;;;11.07;;
5890;SDS011;2971;52.420;7.080;2023-08-01T05:55:55;14.80;;;10.73;;
5890;SDS011;2971;52.420;7.080;2023-08-01T05:58:20;13.87;;;10.17;;
5890;SDS011;2971;52.420;7.080;2023-08-01T06:00:46;15.83;;;10.60;;
5890;SDS011;2971;52.420;7.080;2023-08-01T06:03:11;16.33;;;10.80;;
5890;SDS011;2971;52.420;7.080;2023-08-01T06:05:37;19.57;;;11.27;;
5890;SDS011;2971;52.420;7.080;2023-08-01T06:08:03;13.97;;;10.10;;
5890;SDS011;2971;52.420;7.080;2023-08-01T06:10:29;16.07;;;10.87;;
5890;SDS011;2971;52.420;7.080;2023-08-01T06:12:54;14.10;;;10.27;;
5890;SDS011;2971;52.420;7.080;2023-08-01T06:15:20;14.50;;;10.20;;
5890;SDS011;2971;52.420;7.080;2023-08-01T06:17:46;13.03;;;9.43;;
5890;SDS011;2971;52.420;7.080;2023-08-01T06:20:12;13.87;;;9.40;;
5890;SDS011;2971;52.420;7.080;2023-08-01T06:22:37;14.67;;;10.20;;
5890;SDS011;2971;52.420;7.080;2023-08-01T06:25:03;14.97;;;9.33;;
5890;SDS011;2971;52.420;7.080;2023-08-01T06:27:29;15.50;;;9.97;;
5890;SDS011;2971;52.420;7.080;2023-08-01T06:29:54;13.67;;;9.20;;
5890;SDS011;2971;52.420;7.080;2023-08-01T06:32:20;14.00;;;9.00;;
5890;SDS011;2971;52.420;7.080;2023-08-01T06:34:45;14.67;;;9.13;;
5890;SDS011;2971;52.420;7.080;2023-08-01T06:37:10;14.40;;;9.90;;
5890;SDS011;2971;52.420;7.080;2023-08-01T06:39:36;18.07;;;10.67;;
5890;SDS011;2971;52.420;7.080;2023-08-01T06:42:01;17.40;;;10.53;;
5890;SDS011;2971;52.420;7.080;2023-08-01T06:44:28;14.77;;;10.53;;
5890;SDS011;2971;52.420;7.080;2023-08-01T06:46:53;17.07;;;9.60;;
5890;SDS011;2971;52.420;7.080;2023-08-01T06:49:18;15.23;;;9.70;;
5890;SDS011;2971;52.420;7.080;2023-08-01T06:51:44;11.73;;;6.97;;
5890;SDS011;2971;52.420;7.080;2023-08-01T06:54:09;8.23;;;5.40;;
5890;SDS011;2971;52.420;7.080;2023-08-01T06:56:35;6.60;;;4.43;;
5890;SDS011;2971;52.420;7.080;2023-08-01T06:59:00;8.67;;;5.00;;
5890;SDS011;2971;52.420;7.080;2023-08-01T07:01:26;7.00;;;4.80;;
5890;SDS011;2971;52.420;7.080;2023-08-01T07:03:52;7.87;;;5.07;;
5890;SDS011;2971;52.420;7.080;2023-08-01T07:06:17;8.67;;;5.77;;
5890;SDS011;2971;52.420;7.080;2023-08-01T07:08:43;10.33;;;6.37;;
5890;SDS011;2971;52.420;7.080;2023-08-01T07:11:08;9.03;;;6.10;;
5890;SDS011;2971;52.420;7.080;2023-08-01T07:13:34;10.03;;;6.97;;
5890;SDS011;2971;52.420;7.080;2023-08-01T07:15:59;12.30;;;7.63;;
5890;SDS011;2971;52.420;7.080;2023-08-01T07:18:25;11.07;;;7.73;;
5890;SDS011;2971;52.420;7.080;2023-08-01T07:21:03;10.50;;;7.90;;
5890;SDS011;2971;52.420;7.080;2023-08-01T07:23:29;15.10;;;9.77;;
5890;SDS011;2971;52.420;7.080;2023-08-01T07:25:55;12.57;;;9.67;;
5890;SDS011;2971;52.420;7.080;2023-08-01T07:28:21;15.50;;;9.70;;
5890;SDS011;2971;52.420;7.080;2023-08-01T07:30:46;14.43;;;10.80;;
5890;SDS011;2971;52.420;7.080;2023-08-01T07:33:12;14.00;;;10.23;;
5890;SDS011;2971;52.420;7.080;2023-08-01T07:35:37;14.77;;;10.40;;
5890;SDS011;2971;52.420;7.080;2023-08-01T07:38:03;13.40;;;10.23;;
5890;SDS011;2971;52.420;7.080;2023-08-01T07:40:28;13.93;;;9.67;;
5890;SDS011;2971;52.420;7.080;2023-08-01T07:42:53;14.93;;;8.93;;
5890;SDS011;2971;52.420;7.080;2023-08-01T07:45:19;10.33;;;8.40;;
5890;SDS011;2971;52.420;7.080;2023-08-01T07:47:45;9.13;;;7.83;;
5890;SDS011;2971;52.420;7.080;2023-08-01T07:50:10;8.80;;;6.47;;
5890;SDS011;2971;52.420;7.080;2023-08-01T07:52:36;10.53;;;5.63;;
5890;SDS011;2971;52.420;7.080;2023-08-01T07:55:01;8.67;;;6.17;;
5890;SDS011;2971;52.420;7.080;2023-08-01T07:57:27;8.77;;;7.10;;
5890;SDS011;2971;52.420;7.080;2023-08-01T07:59:52;10.67;;;7.53;;
5890;SDS011;2971;52.420;7.080;2023-08-01T08:02:18;9.57;;;7.47;;
5890;SDS011;2971;52.420;7.080;2023-08-01T08:04:43;10.73;;;7.83;;
5890;SDS011;2971;52.420;7.080;2023-08-01T08:07:09;11.67;;;7.70;;
5890;SDS011;2971;52.420;7.080;2023-08-01T08:09:34;9.87;;;7.93;;
5890;SDS011;2971;52.420;7.080;2023-08-01T08:11:59;12.97;;;8.40;;
5890;SDS011;2971;52.420;7.080;2023-08-01T08:14:25;13.90;;;8.00;;
5890;SDS011;2971;52.420;7.080;2023-08-01T08:16:51;14.03;;;8.17;;
5890;SDS011;2971;52.420;7.080;2023-08-01T08:19:16;14.03;;;7.90;;
5890;SDS011;2971;52.420;7.080;2023-08-01T08:21:42;14.13;;;8.60;;
5890;SDS011;2971;52.420;7.080;2023-08-01T08:24:07;14.60;;;8.00;;
5890;SDS011;2971;52.420;7.080;2023-08-01T08:26:32;19.17;;;8.27;;
5890;SDS011;2971;52.420;7.080;2023-08-01T08:29:02;15.83;;;8.33;;
5890;SDS011;2971;52.420;7.080;2023-08-01T08:31:28;17.03;;;8.47;;
5890;SDS011;2971;52.420;7.080;2023-08-01T08:33:53;14.43;;;8.13;;
5890;SDS011;2971;52.420;7.080;2023-08-01T08:36:19;15.17;;;9.13;;
5890;SDS011;2971;52.420;7.080;2023-08-01T08:38:44;15.63;;;8.60;;
5890;SDS011;2971;52.420;7.080;2023-08-01T08:41:35;16.17;;;8.43;;
5890;SDS011;2971;52.420;7.080;2023-08-01T08:43:57;15.50;;;9.07;;
5890;SDS011;2971;52.420;7.080;2023-08-01T08:46:28;12.87;;;8.33;;
5890;SDS011;2971;52.420;7.080;2023-08-01T08:48:55;14.27;;;8.23;;
5890;SDS011;2971;52.420;7.080;2023-08-01T08:51:22;12.30;;;7.10;;
5890;SDS011;2971;52.420;7.080;2023-08-01T08:53:48;10.97;;;6.63;;
5890;SDS011;2971;52.420;7.080;2023-08-01T08:56:17;14.03;;;6.67;;
5890;SDS011;2971;52.420;7.080;2023-08-01T08:58:42;10.73;;;6.20;;
5890;SDS011;2971;52.420;7.080;2023-08-01T09:01:08;10.90;;;5.77;;
5890;SDS011;2971;52.420;7.080;2023-08-01T09:03:34;11.83;;;5.70;;
5890;SDS011;2971;52.420;7.080;2023-08-01T09:06:06;11.03;;;5.50;;
5890;SDS011;2971;52.420;7.080;2023-08-01T09:08:34;8.90;;;4.70;;
5890;SDS011;2971;52.420;7.080;2023-08-01T09:11:01;8.27;;;4.43;;
5890;SDS011;2971;52.420;7.080;2023-08-01T09:13:26;10.53;;;5.30;;
5890;SDS011;2971;52.420;7.080;2023-08-01T09:15:52;10.10;;;4.40;;
5890;SDS011;2971;52.420;7.080;2023-08-01T09:18:17;10.90;;;4.90;;
5890;SDS011;2971;52.420;7.080;2023-08-01T09:20:44;8.83;;;4.00;;
5890;SDS011;2971;52.420;7.080;2023-08-01T09:23:10;9.07;;;4.00;;
5890;SDS011;2971;52.420;7.080;2023-08-01T09:25:36;6.77;;;3.73;;
5890;SDS011;2971;52.420;7.080;2023-08-01T09:28:02;8.57;;;3.53;;
5890;SDS011;2971;52.420;7.080;2023-08-01T09:30:27;7.67;;;3.80;;
5890;SDS011;2971;52.420;7.080;2023-08-01T09:32:55;7.13;;;3.57;;
5890;SDS011;2971;52.420;7.080;2023-08-01T09:35:21;7.43;;;3.73;;
5890;SDS011;2971;52.420;7.080;2023-08-01T09:37:47;7.23;;;3.73;;
5890;SDS011;2971;52.420;7.080;2023-08-01T09:40:13;6.70;;;3.70;;
5890;SDS011;2971;52.420;7.080;2023-08-01T09:42:42;7.53;;;3.40;;
5890;SDS011;2971;52.420;7.080;2023-08-01T09:47:39;8.50;;;3.67;;
5890;SDS011;2971;52.420;7.080;2023-08-01T09:50:04;7.87;;;3.33;;
5890;SDS011;2971;52.420;7.080;2023-08-01T09:52:30;10.33;;;3.67;;
5890;SDS011;2971;52.420;7.080;2023-08-01T09:54:55;8.27;;;3.40;;
5890;SDS011;2971;52.420;7.080;2023-08-01T09:57:21;5.87;;;3.20;;
5890;SDS011;2971;52.420;7.080;2023-08-01T09:59:47;7.83;;;3.13;;
5890;SDS011;2971;52.420;7.080;2023-08-01T10:02:15;6.77;;;3.33;;
5890;SDS011;2971;52.420;7.080;2023-08-01T10:04:42;7.03;;;3.70;;
5890;SDS011;2971;52.420;7.080;2023-08-01T10:07:08;6.73;;;3.50;;
5890;SDS011;2971;52.420;7.080;2023-08-01T10:09:39;5.93;;;3.30;;
5890;SDS011;2971;52.420;7.080;2023-08-01T10:12:05;5.77;;;3.40;;
5890;SDS011;2971;52.420;7.080;2023-08-01T10:14:32;6.67;;;3.40;;
5890;SDS011;2971;52.420;7.080;2023-08-01T10:16:58;6.20;;;3.17;;
5890;SDS011;2971;52.420;7.080;2023-08-01T10:19:23;6.57;;;3.40;;
5890;SDS011;2971;52.420;7.080;2023-08-01T10:21:50;7.10;;;3.87;;
5890;SDS011;2971;52.420;7.080;2023-08-01T10:24:15;8.50;;;3.73;;
5890;SDS011;2971;52.420;7.080;2023-08-01T10:26:44;6.03;;;3.67;;
5890;SDS011;2971;52.420;7.080;2023-08-01T10:29:10;6.43;;;4.00;;
5890;SDS011;2971;52.420;7.080;2023-08-01T10:31:35;12.13;;;4.90;;
5890;SDS011;2971;52.420;7.080;2023-08-01T10:34:05;9.53;;;3.90;;
5890;SDS011;2971;52.420;7.080;2023-08-01T10:36:38;8.30;;;4.10;;
5890;SDS011;2971;52.420;7.080;2023-08-01T10:39:03;5.00;;;3.40;;
5890;SDS011;2971;52.420;7.080;2023-08-01T10:41:29;7.07;;;3.50;;
5890;SDS011;2971;52.420;7.080;2023-08-01T10:49:38;4.83;;;3.10;;
5890;SDS011;2971;52.420;7.080;2023-08-01T10:52:16;8.27;;;4.07;;
5890;SDS011;2971;52.420;7.080;2023-08-01T10:54:42;8.43;;;4.10;;
5890;SDS011;2971;52.420;7.080;2023-08-01T10:57:08;6.40;;;4.27;;
5890;SDS011;2971;52.420;7.080;2023-08-01T10:59:34;6.97;;;3.80;;
5890;SDS011;2971;52.420;7.080;2023-08-01T11:01:59;6.43;;;4.27;;
5890;SDS011;2971;52.420;7.080;2023-08-01T11:04:26;10.87;;;5.00;;
5890;SDS011;2971;52.420;7.080;2023-08-01T11:06:52;8.43;;;4.20;;
5890;SDS011;2971;52.420;7.080;2023-08-01T11:09:22;9.07;;;4.80;;
5890;SDS011;2971;52.420;7.080;2023-08-01T11:11:56;10.63;;;4.93;;
5890;SDS011;2971;52.420;7.080;2023-08-01T11:14:23;10.67;;;4.50;;
5890;SDS011;2971;52.420;7.080;2023-08-01T11:16:50;7.70;;;4.30;;
5890;SDS011;2971;52.420;7.080;2023-08-01T11:21:49;7.53;;;4.37;;
5890;SDS011;2971;52.420;7.080;2023-08-01T11:24:15;8.57;;;4.43;;
5890;SDS011;2971;52.420;7.080;2023-08-01T11:26:42;7.90;;;4.10;;
5890;SDS011;2971;52.420;7.080;2023-08-01T11:29:08;4.90;;;3.07;;
5890;SDS011;2971;52.420;7.080;2023-08-01T11:31:34;4.13;;;2.23;;
5890;SDS011;2971;52.420;7.080;2023-08-01T11:34:00;1.97;;;1.70;;
5890;SDS011;2971;52.420;7.080;2023-08-01T11:36:26;3.67;;;1.50;;
5890;SDS011;2971;52.420;7.080;2023-08-01T11:38:52;3.20;;;1.77;;
5890;SDS011;2971;52.420;7.080;2023-08-01T11:41:18;3.83;;;1.90;;
5890;SDS011;2971;52.420;7.080;2023-08-01T11:43:43;6.20;;;1.93;;
5890;SDS011;2971;52.420;7.080;2023-08-01T11:46:09;3.77;;;2.30;;
5890;SDS011;2971;52.420;7.080;2023-08-01T11:48:34;3.50;;;2.30;;
5890;SDS011;2971;52.420;7.080;2023-08-01T11:51:01;5.57;;;2.37;;
5890;SDS011;2971;52.420;7.080;2023-08-01T11:53:26;4.87;;;2.40;;
5890;SDS011;2971;52.420;7.080;2023-08-01T11:55:53;5.77;;;2.60;;
5890;SDS011;2971;52.420;7.080;2023-08-01T11:58:30;5.70;;;3.07;;
5890;SDS011;2971;52.420;7.080;2023-08-01T12:01:07;4.50;;;2.50;;
5890;SDS011;2971;52.420;7.080;2023-08-01T12:03:47;8.33;;;3.40;;
5890;SDS011;2971;52.420;7.080;2023-08-01T12:06:14;4.57;;;2.87;;
5890;SDS011;2971;52.420;7.080;2023-08-01T12:08:41;4.30;;;2.70;;
5890;SDS011;2971;52.420;7.080;2023-08-01T12:11:20;4.60;;;2.73;;
5890;SDS011;2971;52.420;7.080;2023-08-01T12:13:59;5.13;;;2.80;;
5890;SDS011;2971;52.420;7.080;2023-08-01T12:16:27;5.80;;;2.60;;
5890;SDS011;2971;52.420;7.080;2023-08-01T12:18:53;6.50;;;3.03;;
5890;SDS011;2971;52.420;7.080;2023-08-01T12:21:18;5.73;;;2.80;;
5890;SDS011;2971;52.420;7.080;2023-08-01T12:23:44;6.57;;;2.93;;
5890;SDS011;2971;52.420;7.080;2023-08-01T12:26:09;5.20;;;2.77;;
5890;SDS011;2971;52.420;7.080;2023-08-01T12:28:35;5.77;;;2.80;;
5890;SDS011;2971;52.420;7.080;2023-08-01T12:31:01;5.80;;;2.80;;
5890;SDS011;2971;52.420;7.080;2023-08-01T12:33:26;6.57;;;3.30;;
5890;SDS011;2971;52.420;7.080;2023-08-01T12:35:55;5.93;;;3.43;;
5890;SDS011;2971;52.420;7.080;2023-08-01T12:38:20;5.33;;;2.83;;
5890;SDS011;2971;52.420;7.080;2023-08-01T12:40:45;4.83;;;2.80;;
5890;SDS011;2971;52.420;7.080;2023-08-01T12:43:12;5.97;;;2.70;;
5890;SDS011;2971;52.420;7.080;2023-08-01T12:45:37;5.47;;;2.70;;
5890;SDS011;2971;52.420;7.080;2023-08-01T12:48:03;4.43;;;2.60;;
5890;SDS011;2971;52.420;7.080;2023-08-01T12:50:28;5.93;;;2.80;;
5890;SDS011;2971;52.420;7.080;2023-08-01T12:52:54;5.07;;;2.90;;
5890;SDS011;2971;52.420;7.080;2023-08-01T12:55:21;5.93;;;2.60;;
5890;SDS011;2971;52.420;7.080;2023-08-01T12:57:46;4.37;;;2.40;;
5890;SDS011;2971;52.420;7.080;2023-08-01T13:00:12;4.53;;;2.60;;
5890;SDS011;2971;52.420;7.080;2023-08-01T13:02:37;4.70;;;2.77;;
5890;SDS011;2971;52.420;7.080;2023-08-01T13:05:06;7.07;;;2.50;;
5890;SDS011;2971;52.420;7.080;2023-08-01T13:07:31;5.63;;;2.60;;
5890;SDS011;2971;52.420;7.080;2023-08-01T13:09:58;6.00;;;2.80;;
5890;SDS011;2971;52.420;7.080;2023-08-01T13:12:23;5.63;;;2.70;;
5890;SDS011;2971;52.420;7.080;2023-08-01T13:14:49;4.57;;;2.60;;
5890;SDS011;2971;52.420;7.080;2023-08-01T13:17:14;4.63;;;2.53;;
5890;SDS011;2971;52.420;7.080;2023-08-01T13:19:40;4.00;;;2.23;;
5890;SDS011;2971;52.420;7.080;2023-08-01T13:22:05;5.37;;;2.23;;
5890;SDS011;2971;52.420;7.080;2023-08-01T13:24:31;3.13;;;2.00;;
5890;SDS011;2971;52.420;7.080;2023-08-01T13:26:57;6.10;;;2.50;;
5890;SDS011;2971;52.420;7.080;2023-08-01T13:29:23;5.20;;;2.23;;
5890;SDS011;2971;52.420;7.080;2023-08-01T13:31:48;6.57;;;2.67;;
5890;SDS011;2971;52.420;7.080;2023-08-01T13:34:13;6.13;;;2.63;;
5890;SDS011;2971;52.420;7.080;2023-08-01T13:36:39;6.23;;;2.43;;
5890;SDS011;2971;52.420;7.080;2023-08-01T13:39:04;5.97;;;2.80;;
5890;SDS011;2971;52.420;7.080;2023-08-01T13:41:32;3.97;;;2.27;;
5890;SDS011;2971;52.420;7.080;2023-08-01T13:43:58;4.17;;;2.03;;
5890;SDS011;2971;52.420;7.080;2023-08-01T13:46:23;4.57;;;2.40;;
5890;SDS011;2971;52.420;7.080;2023-08-01T13:48:49;5.00;;;2.10;;
5890;SDS011;2971;52.420;7.080;2023-08-01T13:51:14;4.37;;;1.93;;
5890;SDS011;2971;52.420;7.080;2023-08-01T13:53:40;5.90;;;2.10;;
5890;SDS011;2971;52.420;7.080;2023-08-01T13:56:08;4.82;;;2.20;;
5890;SDS011;2971;52.420;7.080;2023-08-01T13:58:39;6.22;;;2.30;;
5890;SDS011;2971;52.420;7.080;2023-08-01T14:01:05;4.57;;;2.20;;
5890;SDS011;2971;52.420;7.080;2023-08-01T14:03:37;3.33;;;2.00;;
5890;SDS011;2971;52.420;7.080;2023-08-01T14:06:07;8.40;;;2.57;;
5890;SDS011;2971;52.420;7.080;2023-08-01T14:08:33;4.37;;;2.10;;
5890;SDS011;2971;52.420;7.080;2023-08-01T14:10:59;5.10;;;1.97;;
5890;SDS011;2971;52.420;7.080;2023-08-01T14:13:25;7.37;;;2.37;;
5890;SDS011;2971;52.420;7.080;2023-08-01T14:15:50;4.20;;;1.97;;
5890;SDS011;2971;52.420;7.080;2023-08-01T14:18:16;4.53;;;1.90;;
5890;SDS011;2971;52.420;7.080;2023-08-01T14:20:42;3.23;;;1.77;;
5890;SDS011;2971;52.420;7.080;2023-08-01T14:23:07;4.77;;;2.20;;
5890;SDS011;2971;52.420;7.080;2023-08-01T14:25:33;3.57;;;2.03;;
5890;SDS011;2971;52.420;7.080;2023-08-01T14:28:00;4.33;;;2.10;;
5890;SDS011;2971;52.420;7.080;2023-08-01T14:30:26;3.80;;;2.00;;
5890;SDS011;2971;52.420;7.080;2023-08-01T14:32:58;5.03;;;2.00;;
5890;SDS011;2971;52.420;7.080;2023-08-01T14:35:26;3.87;;;1.93;;
5890;SDS011;2971;52.420;7.080;2023-08-01T14:37:52;2.40;;;1.80;;
5890;SDS011;2971;52.420;7.080;2023-08-01T14:40:17;4.80;;;2.10;;
5890;SDS011;2971;52.420;7.080;2023-08-01T14:42:43;4.70;;;2.10;;
5890;SDS011;2971;52.420;7.080;2023-08-01T14:45:08;4.23;;;1.90;;
5890;SDS011;2971;52.420;7.080;2023-08-01T14:47:34;3.50;;;2.10;;
5890;SDS011;2971;52.420;7.080;2023-08-01T14:49:59;2.73;;;1.90;;
5890;SDS011;2971;52.420;7.080;2023-08-01T14:52:25;4.27;;;2.37;;
5890;SDS011;2971;52.420;7.080;2023-08-01T14:54:50;6.93;;;2.40;;
5890;SDS011;2971;52.420;7.080;2023-08-01T14:57:16;4.33;;;2.17;;
5890;SDS011;2971;52.420;7.080;2023-08-01T14:59:41;3.93;;;2.10;;
5890;SDS011;2971;52.420;7.080;2023-08-01T15:02:06;4.67;;;2.10;;
5890;SDS011;2971;52.420;7.080;2023-08-01T15:04:32;4.30;;;2.00;;